Latest Coastal Weather Observations for Wilsons Promontory

IDV60701

Issued at 7:12 am EDT Sunday 2 October 2022 (issued every 10 minutes, with the page automatically refreshed every 10 minutes)

About coastal observations | Map of coastal stations | Coastal observations for VIC | Marine services | Other Formats
Station Details ID: 085096 Name: WILSONS PROMONTORY LIGHTHOUSE Lat: -39.13 Lon: 146.42 Height: 95.0 m
Data from the previous 72 hours. | See also: Recent months at Wilsons Promontory
Date/Time
EDT
Wind Sea
Height
m
Swell Vis
km
Cloud Weather Temp
°C
Press
MSL
hPa
Rain since
9am
mm
Dir  Spd
kts
Gust
kts
Height
m
Period
s
Dir
02/07:00am NNE 8 11 - - - - - - - 10.5 1019.3 0.0
02/06:30am NNE 8 11 - - - - - - - 10.5 1019.3 0.0
02/06:00am NNE 9 12 - - - - - - - 10.5 1019.0 0.0
02/05:30am NNE 9 13 - - - - - - - 10.6 1018.7 0.0
02/05:00am NNE 10 15 - - - - - - - 10.7 1018.5 0.0
02/04:30am NNE 11 16 - - - - - - - 11.0 1018.6 0.0
02/04:00am NNE 13 20 - - - - - - - 11.3 1018.8 0.0
02/03:30am NE 12 17 - - - - - - - 11.3 1019.5 0.0
02/03:00am NE 14 20 - - - - - - - 11.4 1019.7 0.0
02/01:30am NE 16 21 - - - - - - - 11.5 1019.9 0.0
02/01:00am NE 17 21 - - - - - - - 11.4 1020.3 0.0
02/12:30am NE 18 22 - - - - - - - 11.5 1020.6 0.0
02/12:00am NE 17 23 - - - - - - - 11.5 1021.0 0.0
 
Date/Time
EDT
Wind Sea
Height
m
Swell Vis
km
Cloud Weather Temp
°C
Press
MSL
hPa
Rain since
9am
mm
Dir  Spd
kts
Gust
kts
Height
m
Period
s
Dir
01/11:30pm NE 16 21 - - - - - - - 11.4 1021.3 0.0
01/11:00pm NE 17 21 - - - - - - - 11.4 1021.8 0.0
01/10:30pm NE 19 23 - - - - - - - 11.4 1022.0 0.0
01/10:00pm NE 18 24 - - - - - - - 11.5 1022.2 0.0
01/09:30pm NE 19 24 - - - - - - - 11.6 1022.8 0.0
01/09:00pm NE 18 22 - - - - - - - 11.7 1023.0 0.0
01/08:30pm NE 19 23 - - - - - - - 11.7 1022.9 0.0
01/08:00pm ENE 19 24 - - - - - - - 11.6 1023.0 0.0
01/07:30pm ENE 18 24 - - - - - - - 11.5 1022.8 0.0
01/07:00pm ENE 18 22 - - - - - - - 11.5 1022.8 0.0
01/06:30pm ENE 19 22 - - - - - - - 11.5 1022.9 0.0
01/06:00pm ENE 21 25 - - - - - - - 11.6 1022.9 0.0
01/05:30pm ENE 20 23 - - - - - - - 11.6 1022.9 0.0
01/05:00pm ENE 20 24 - - - - - - - 11.7 1022.8 0.0
01/04:30pm ENE 24 27 - - - - - - - 11.7 1022.7 0.0
01/04:00pm ENE 25 28 - - - - - - - 11.7 1022.7 0.0
01/03:30pm ENE 23 27 - - - - - - - 11.9 1023.1 0.0
01/03:00pm ENE 21 26 - - - - - - - 12.2 1023.5 0.0
01/02:30pm ENE 21 25 - - - - - - - 12.2 1023.9 0.0
01/02:00pm ENE 23 27 - - - - - - - 11.9 1024.1 0.0
01/01:30pm ENE 23 26 - - - - - - - 11.9 1024.6 0.0
01/01:00pm ENE 23 26 - - - - - - - 12.5 1024.9 0.0
01/12:30pm E 24 26 - - - - - - - 12.5 1025.4 0.0
01/12:00pm ENE 23 26 - - - - - - - 12.6 1025.7 0.0
01/11:30am E 21 24 - - - - - - - 12.6 1026.1 0.0
01/11:00am ENE 24 27 - - - - - - - 12.8 1026.1 0.0
01/10:30am ENE 24 27 - - - - - - - 12.6 1026.3 0.0
01/10:00am ENE 24 27 - - - - - - - 12.6 1026.5 0.0
01/09:30am ENE 23 26 - - - - - - - 12.6 1027.0 0.0
01/09:00am E 22 26 - - - - - - - 12.4 1027.2 0.0
01/08:30am E 23 26 - - - - - - - 12.2 1027.0 0.0
01/08:00am E 22 26 - - - - - - - 11.4 1027.3 0.0
01/07:30am E 24 27 - - - - - - - 11.1 1027.2 0.0
01/07:00am E 23 26 - - - - - - - 11.0 1027.4 0.0
01/06:30am E 22 25 - - - - - - - 10.8 1027.5 0.0
01/06:00am E 22 25 - - - - - - - 11.0 1027.4 0.0
01/05:30am E 22 26 - - - - - - - 11.0 1027.1 0.0
01/05:00am E 22 25 - - - - - - - 10.8 1027.2 0.0
01/04:30am E 23 26 - - - - - - - 10.8 1027.1 0.0
01/04:00am E 24 27 - - - - - - - 10.9 1027.2 0.0
01/03:30am E 22 26 - - - - - - - 10.9 1027.3 0.0
01/03:00am E 24 27 - - - - - - - 10.8 1027.5 0.0
01/02:30am E 25 29 - - - - - - - 10.8 1027.7 0.0
01/02:00am E 26 31 - - - - - - - 11.1 1028.0 0.0
01/01:30am E 26 31 - - - - - - - 11.1 1028.2 0.0
01/01:00am E 24 29 - - - - - - - 11.0 1028.6 0.0
01/12:30am E 24 27 - - - - - - - 11.5 1028.9 0.0
01/12:00am ENE 24 28 - - - - - - - 11.6 1029.2 0.0
 
Date/Time
EDT
Wind Sea
Height
m
Swell Vis
km
Cloud Weather Temp
°C
Press
MSL
hPa
Rain since
9am
mm
Dir  Spd
kts
Gust
kts
Height
m
Period
s
Dir
30/11:30pm ENE 27 31 - - - - - - - 11.5 1029.1 0.0
30/11:00pm ENE 26 30 - - - - - - - 11.5 1029.3 0.0
30/10:30pm E 28 32 - - - - - - - 11.3 1029.2 0.0
30/10:00pm ENE 28 32 - - - - - - - 11.2 1029.4 0.0
30/09:30pm ENE 28 32 - - - - - - - 11.1 1029.5 0.0
30/09:00pm ENE 27 31 - - - - - - - 11.2 1029.8 0.0
30/08:30pm E 28 31 - - - - - - - 11.2 1029.8 0.0
30/08:00pm E 26 32 - - - - - - - 11.3 1029.9 0.0
30/07:30pm E 24 30 - - - - - - - 11.2 1030.0 0.0
30/07:00pm E 26 29 - - - - - - - 11.2 1029.9 0.0
30/06:30pm E 25 31 - - - - - - - 11.3 1029.9 0.0
30/06:00pm E 26 29 - - - - - - - 11.3 1029.7 0.0
30/05:30pm ENE 26 30 - - - - - - - 11.3 1029.7 0.0
30/05:00pm ENE 25 28 - - - - - - - 11.3 1029.4 0.0
30/04:30pm ENE 25 28 - - - - - - - 11.5 1029.4 0.0
30/04:00pm ENE 24 28 - - - - - - - 11.8 1029.7 0.0
30/03:30pm E 24 27 - - - - - - - 11.8 1030.0 0.0
30/03:00pm E 24 28 - - - - - - - 11.9 1030.2 0.0
30/02:30pm E 24 27 - - - - - - - 12.0 1030.4 0.0
30/02:00pm E 25 28 - - - - - - - 12.1 1030.8 0.0
30/01:30pm E 25 28 - - - - - - - 12.2 1030.9 0.0
30/01:00pm E 23 28 - - - - - - - 12.4 1031.1 0.0
30/12:30pm E 23 27 - - - - - - - 12.4 1031.4 0.0
30/12:00pm E 22 27 - - - - - - - 12.5 1031.7 0.0
30/11:30am E 22 27 - - - - - - - 12.7 1031.9 0.0
30/11:00am E 24 28 - - - - - - - 12.4 1031.9 0.0
30/10:30am E 22 26 - - - - - - - 12.9 1032.0 0.0
30/10:00am E 21 25 - - - - - - - 12.5 1032.2 0.0
30/09:30am E 22 25 - - - - - - - 12.6 1032.3 0.0
30/09:00am E 22 26 - - - - - - - 12.6 1032.1 0.2
30/08:30am E 20 25 - - - - - - - 12.7 1032.0 0.2
30/08:00am E 24 28 - - - - - - - 12.0 1031.4 0.2
30/07:30am E 24 29 - - - - - - - 12.0 1031.2 0.2
30/07:00am E 25 31 - - - - - - - 11.3 1031.0 0.2
30/06:30am E 26 30 - - - - - - - 11.2 1030.6 0.2
30/06:00am E 26 30 - - - - - - - 11.1 1030.3 0.2
30/05:30am E 27 30 - - - - - - - 11.0 1029.9 0.2
30/05:00am E 29 34 - - - - - - - 11.0 1029.5 0.2
30/04:30am E 28 34 - - - - - - - 11.2 1029.3 0.2
30/04:00am E 28 33 - - - - - - - 11.2 1029.1 0.2
30/03:30am E 32 36 - - - - - - - 11.2 1028.8 0.2
30/03:00am E 31 36 - - - - - - - 11.3 1028.9 0.2
30/02:30am E 29 35 - - - - - - - 11.3 1028.9 0.2
30/02:00am E 31 37 - - - - - - - 11.3 1028.9 0.2
30/01:30am E 27 34 - - - - - - - 11.3 1029.2 0.2
30/01:00am E 29 34 - - - - - - - 11.4 1029.3 0.2
30/12:30am E 26 31 - - - - - - - 11.3 1029.6 0.2
30/12:00am E 29 34 - - - - - - - 11.2 1029.4 0.2
 
Date/Time
EDT
Wind Sea
Height
m
Swell Vis
km
Cloud Weather Temp
°C
Press
MSL
hPa
Rain since
9am
mm
Dir  Spd
kts
Gust
kts
Height
m
Period
s
Dir
29/11:30pm E 27 32 - - - - - - - 11.3 1029.1 0.2
29/11:00pm E 31 39 - - - - - - - 11.1 1029.1 0.2
29/10:34pm E 29 39 - - - - - - - 11.0 1028.9 0.2
29/10:30pm E 29 35 - - - - - - - 10.7 1029.1 0.2
29/10:00pm E 28 33 - - - - - - - 10.6 1029.3 0.2
29/09:30pm E 31 37 - - - - - - - 10.7 1029.1 0.2
29/09:00pm E 31 36 - - - - - - - 10.5 1028.9 0.0
29/08:40pm E 26 36 - - - - - - - 10.6 1029.1 0.0
29/08:30pm E 29 33 - - - - - - - 10.6 1028.8 0.0
29/08:00pm E 28 32 - - - - - - - 11.2 1028.8 0.0
29/07:30pm E 26 31 - - - - - - - 11.6 1028.7 0.0
29/07:00pm ESE 25 29 - - - - - - - 11.8 1028.2 0.0
29/06:30pm E 20 25 - - - - - - - 11.8 1028.0 0.0
29/06:00pm ESE 18 22 - - - - - - - 11.7 1027.8 0.0
29/05:30pm ESE 16 19 - - - - - - - 11.5 1027.7 0.0
29/05:00pm ESE 15 19 - - - - - - - 12.4 1027.6 0.0
29/04:30pm E 13 16 - - - - - - - 12.4 1027.2 0.0
29/04:00pm E 10 13 - - - - - - - 12.9 1026.9 0.0
29/03:30pm ENE 7 8 - - - - - - - 13.0 1026.8 0.0
29/03:00pm ENE 7 8 - - - - - - - 13.3 1026.6 0.0
29/02:30pm E 9 11 - - - - - - - 13.2 1026.7 0.0
29/02:00pm E 11 12 - - - - - - - 13.1 1026.7 0.0
29/01:30pm E 9 10 - - - - - - - 13.5 1026.8 0.0
29/01:00pm E 8 9 - - - - - - - 13.9 1026.7 0.0
29/12:30pm E 9 10 - - - - - - - 13.6 1026.8 0.0
29/12:00pm ENE 9 11 - - - - - - - 14.1 1026.6 0.0
29/11:30am E 10 11 - - - - - - - 13.7 1026.5 0.0
29/11:00am ESE 5 6 - - - - - - - 12.8 1026.3 0.0
29/10:30am SSE 4 4 - - - - - - - 13.4 1026.5 0.0
29/10:00am SE 3 5 - - - - - - - 12.3 1026.5 0.0
29/09:30am SE 3 4 - - - - - - - 12.2 1026.1 0.0
29/09:00am NE 1 5 - - - - - - - 12.2 1025.9 0.0
29/08:30am NE 5 8 - - - - - - - 11.8 1025.5 0.0
29/08:00am ENE 2 5 - - - - - - - 11.8 1025.2 0.0
29/07:30am W 5 5 - - - - - - - 10.8 1025.0 0.0
29/07:00am SW 2 5 - - - - - - - 10.6 1024.7 0.0
29/06:30am CALM 0 0 - - - - - - - 10.3 1024.4 0.0

Other formats

Comma delimited format used in spreadsheet applications
http://www.bom.gov.au/fwo/IDV60701/IDV60701.94893.axf

JavaScript Object Notation format (JSON) in row-major order
http://www.bom.gov.au/fwo/IDV60701/IDV60701.94893.json

Data quality

Most of these data are generated automatically and are frequently updated. Quality checks on data are not normally performed. It is possible for incorrect values to appear. Refer to information at About Latest Weather Observations and please check the disclaimer before using these data.